Port Nolloth, South Africa
Current Conditions -  °F | °C
As of 8:00 AM on Sunday 21 Dec 2014 (Local Time) from FAUP Reporting Station
Clear Clear  
Wind Chill: 72°   Ceiling: Unl
Heat Index: 72°   Visibility: 6mi
Dew Point: 34°   Wind: 7mph
Humidity: 25%   Direction: 210°SSW
Pressure: 29.97"   Gusts: NA
Location:  29.24°S, 16.88°E
Report Text: FAUP 210600Z 21006KT CAVOK 22/01 Q1015 NOSIG
Loading
Personal Weather Stations






























Interactive Weather Map New forecast layout! Learn more

10-Day Weather Forecast

Advertisements
Track Severe Weather on mobile